Time;durP1;ratioP1;P1;durP2;ratioP2;P2;SDS_P1;SDS_P2;PMS_P1;PMS_P2;Temp;Humidity;BMP_temperature;BMP_pressure;BME280_temperature;BME280_humidity;BME280_pressure;Samples;Min_cycle;Max_cycle;Signal;HPM_P1;HPM_P2
2024/01/25 00:02:17;;;;;;;21.50;6.33;;;9.30;99.90;;;;;;5032959;28;20185;-72
2024/01/25 00:04:43;;;;;;;22.33;7.73;;;9.40;99.90;;;;;;5032723;28;20186;-72
2024/01/25 00:07:09;;;;;;;19.30;6.70;;;9.40;99.90;;;;;;5030753;28;20249;-72
2024/01/25 00:09:35;;;;;;;14.40;5.57;;;9.40;99.90;;;;;;5032089;28;20205;-72
2024/01/25 00:12:01;;;;;;;22.60;6.97;;;9.40;99.90;;;;;;5032654;28;20629;-72
2024/01/25 00:14:26;;;;;;;25.90;7.77;;;9.40;99.90;;;;;;5032933;28;20181;-72
2024/01/25 00:16:52;;;;;;;23.87;6.83;;;9.40;99.90;;;;;;5030665;28;20209;-72
2024/01/25 00:19:18;;;;;;;25.13;7.50;;;9.40;99.90;;;;;;5029358;28;20195;-72
2024/01/25 00:21:44;;;;;;;22.23;5.70;;;9.40;99.90;;;;;;5028048;28;20243;-73
2024/01/25 00:24:13;;;;;;;21.30;6.53;;;9.40;99.90;;;;;;5032757;28;20182;-72
2024/01/25 00:26:38;;;;;;;24.30;6.97;;;9.30;99.90;;;;;;5029621;28;20512;-72
2024/01/25 00:29:05;;;;;;;16.10;6.70;;;9.30;99.90;;;;;;5014362;28;21058;-72
2024/01/25 00:31:30;;;;;;;16.47;6.10;;;9.30;99.90;;;;;;5031838;28;20670;-72
2024/01/25 00:33:57;;;;;;;28.40;5.90;;;9.30;99.90;;;;;;5032949;28;20421;-72
2024/01/25 00:36:24;;;;;;;23.60;6.77;;;9.30;99.90;;;;;;5031334;28;20240;-73
2024/01/25 00:38:50;;;;;;;18.73;5.83;;;9.30;99.90;;;;;;5032569;28;20425;-72
2024/01/25 00:41:19;;;;;;;19.97;6.27;;;9.30;99.90;;;;;;5032475;28;21019;-72
2024/01/25 00:43:46;;;;;;;18.33;5.30;;;9.30;99.90;;;;;;5014094;28;20515;-72
2024/01/25 00:46:12;;;;;;;18.20;4.73;;;9.30;99.90;;;;;;5031694;28;20428;-72
2024/01/25 00:48:40;;;;;;;25.53;6.00;;;9.30;99.90;;;;;;5031725;28;20471;-73
2024/01/25 00:51:07;;;;;;;20.87;6.33;;;9.30;99.90;;;;;;5031967;28;20433;-72
2024/01/25 00:53:33;;;;;;;24.37;6.20;;;9.20;99.90;;;;;;5013733;28;20448;-72
2024/01/25 00:55:59;;;;;;;24.73;6.23;;;9.20;99.90;;;;;;5031263;28;20498;-72
2024/01/25 00:58:26;;;;;;;23.30;6.07;;;9.20;99.90;;;;;;5031349;28;20466;-73
2024/01/25 01:00:51;;;;;;;20.40;7.70;;;9.20;99.90;;;;;;5032131;28;20456;-72
2024/01/25 01:03:19;;;;;;;22.90;5.37;;;9.20;99.90;;;;;;5031836;28;20472;-72
2024/01/25 01:05:45;;;;;;;25.40;5.23;;;9.20;99.90;;;;;;5031302;28;20432;-72
2024/01/25 01:08:12;;;;;;;25.67;7.80;;;9.20;99.90;;;;;;5032187;28;20429;-72
2024/01/25 01:10:37;;;;;;;31.93;8.67;;;9.30;99.90;;;;;;4998934;28;20795;-72
2024/01/25 01:13:03;;;;;;;22.53;5.80;;;9.20;99.90;;;;;;5012116;28;20480;-72
2024/01/25 01:15:29;;;;;;;24.70;6.70;;;9.30;99.90;;;;;;5026108;28;20366;-72
2024/01/25 01:17:55;;;;;;;15.83;5.80;;;9.20;99.90;;;;;;5031026;28;20197;-72
2024/01/25 01:20:20;;;;;;;18.57;6.77;;;9.20;99.90;;;;;;5031194;28;20208;-72
2024/01/25 01:22:46;;;;;;;17.03;5.60;;;9.20;99.90;;;;;;5031276;28;20966;-72
2024/01/25 01:25:12;;;;;;;26.43;5.90;;;9.20;99.90;;;;;;5031718;28;20244;-72
2024/01/25 01:27:37;;;;;;;27.13;7.37;;;9.20;99.90;;;;;;5031415;28;20178;-72
2024/01/25 01:30:04;;;;;;;22.60;5.87;;;9.20;99.90;;;;;;5032818;28;20203;-72
2024/01/25 01:32:29;;;;;;;17.33;5.33;;;9.20;99.90;;;;;;4999036;28;20316;-72
2024/01/25 01:34:55;;;;;;;28.47;6.60;;;9.20;99.90;;;;;;5032237;28;21068;-72
2024/01/25 01:37:21;;;;;;;23.73;7.17;;;9.10;99.90;;;;;;5030530;28;20862;-72
2024/01/25 01:39:46;;;;;;;20.67;6.30;;;9.10;99.90;;;;;;5031639;28;20209;-72
2024/01/25 01:42:12;;;;;;;27.17;6.93;;;9.10;99.90;;;;;;5034732;28;20235;-72
2024/01/25 01:44:39;;;;;;;18.73;6.90;;;9.10;99.90;;;;;;5034573;28;20280;-72
2024/01/25 01:47:05;;;;;;;16.87;4.93;;;9.10;99.90;;;;;;5034493;28;20582;-72
2024/01/25 01:49:31;;;;;;;19.73;6.37;;;9.10;99.90;;;;;;5035235;28;20429;-72
2024/01/25 01:51:57;;;;;;;24.53;6.20;;;9.10;99.90;;;;;;5034907;28;20269;-73
2024/01/25 01:54:24;;;;;;;22.53;5.87;;;9.10;99.90;;;;;;5034602;28;20433;-73
2024/01/25 01:56:50;;;;;;;25.73;7.20;;;9.10;99.90;;;;;;5033734;28;20513;-73
2024/01/25 01:59:16;;;;;;;18.33;6.20;;;9.10;99.90;;;;;;5034419;28;20516;-72
2024/01/25 02:01:42;;;;;;;15.77;6.67;;;9.10;99.90;;;;;;5034612;28;20187;-72
2024/01/25 02:04:07;;;;;;;19.23;5.70;;;9.10;99.90;;;;;;5017517;28;20961;-73
2024/01/25 02:06:34;;;;;;;20.27;5.30;;;9.10;99.90;;;;;;5033921;28;20186;-72
2024/01/25 02:08:59;;;;;;;31.33;6.73;;;9.10;99.90;;;;;;5034198;28;20186;-72
2024/01/25 02:11:26;;;;;;;21.60;5.70;;;9.10;99.90;;;;;;5034022;28;20964;-72
2024/01/25 02:13:51;;;;;;;19.20;5.63;;;9.00;99.90;;;;;;5016885;28;20794;-72
2024/01/25 02:16:18;;;;;;;28.27;6.67;;;9.00;99.90;;;;;;5033472;28;20453;-72
2024/01/25 02:18:44;;;;;;;27.07;6.43;;;9.00;99.90;;;;;;5034592;28;20603;-72
2024/01/25 02:21:10;;;;;;;26.13;7.20;;;9.00;99.90;;;;;;5015573;28;20513;-72
2024/01/25 02:23:36;;;;;;;19.00;5.60;;;9.00;99.90;;;;;;5016304;28;20192;-72
2024/01/25 02:26:01;;;;;;;23.40;6.40;;;9.00;99.90;;;;;;5034143;28;20181;-72
2024/01/25 02:28:27;;;;;;;25.70;5.67;;;9.10;99.90;;;;;;5033889;28;20280;-72
2024/01/25 02:30:53;;;;;;;27.70;6.53;;;9.10;99.90;;;;;;5016850;28;20195;-72
2024/01/25 02:33:18;;;;;;;22.50;6.00;;;9.00;99.90;;;;;;5033183;28;20739;-72
2024/01/25 02:35:44;;;;;;;31.63;6.83;;;9.00;99.90;;;;;;5034179;28;20282;-72
2024/01/25 02:38:10;;;;;;;27.90;6.03;;;9.00;99.90;;;;;;5033484;28;20196;-72
2024/01/25 02:40:36;;;;;;;19.37;5.70;;;9.00;99.90;;;;;;5033956;28;20224;-72
2024/01/25 02:43:01;;;;;;;19.17;5.80;;;8.90;99.90;;;;;;5034014;28;20190;-73
2024/01/25 02:45:27;;;;;;;22.60;5.63;;;8.90;99.90;;;;;;5033433;28;20185;-72
2024/01/25 02:47:53;;;;;;;19.43;5.30;;;8.90;99.90;;;;;;5034033;28;20178;-72
2024/01/25 02:50:19;;;;;;;25.97;8.40;;;8.90;99.90;;;;;;5033053;28;20452;-72
2024/01/25 02:52:44;;;;;;;27.97;5.40;;;8.90;99.90;;;;;;5033236;28;20635;-72
2024/01/25 02:55:10;;;;;;;21.03;7.40;;;8.90;99.90;;;;;;5032314;28;20185;-73
2024/01/25 02:57:36;;;;;;;25.33;5.80;;;8.90;99.90;;;;;;5033613;28;20192;-72
2024/01/25 03:00:01;;;;;;;25.77;5.60;;;8.80;99.90;;;;;;5034835;28;20232;-72
2024/01/25 03:02:27;;;;;;;16.83;5.40;;;8.80;99.90;;;;;;5033117;28;20192;-73
2024/01/25 03:04:53;;;;;;;22.33;5.13;;;8.80;99.90;;;;;;5033712;28;20189;-73
2024/01/25 03:07:18;;;;;;;19.67;5.23;;;8.80;99.90;;;;;;5033242;28;20194;-72
2024/01/25 03:09:44;;;;;;;18.67;5.77;;;8.80;99.90;;;;;;5035149;28;20181;-72
2024/01/25 03:12:10;;;;;;;25.10;6.73;;;8.70;99.90;;;;;;5033817;28;20214;-72
2024/01/25 03:14:36;;;;;;;20.93;4.83;;;8.80;99.90;;;;;;5034052;28;20202;-72
2024/01/25 03:17:01;;;;;;;27.73;5.90;;;8.70;99.90;;;;;;5033814;28;20194;-72
2024/01/25 03:19:28;;;;;;;23.43;5.43;;;8.70;99.90;;;;;;5016250;28;20221;-72
2024/01/25 03:21:54;;;;;;;17.40;5.87;;;8.70;99.90;;;;;;5034595;28;20185;-73
2024/01/25 03:24:22;;;;;;;19.87;5.53;;;8.70;99.90;;;;;;5032981;28;20491;-72
2024/01/25 03:26:48;;;;;;;15.67;5.03;;;8.70;99.90;;;;;;5016373;28;21178;-72
2024/01/25 03:29:14;;;;;;;23.53;7.33;;;8.60;99.90;;;;;;5033768;28;20559;-72
2024/01/25 03:31:40;;;;;;;19.40;4.87;;;8.60;99.90;;;;;;5033849;28;20476;-72
2024/01/25 03:34:05;;;;;;;18.73;4.73;;;8.70;99.90;;;;;;5034477;28;20240;-72
2024/01/25 03:36:31;;;;;;;11.83;4.80;;;8.60;99.90;;;;;;5033010;28;20183;-72
2024/01/25 03:38:57;;;;;;;23.37;4.87;;;8.60;99.90;;;;;;5034383;28;20763;-72
2024/01/25 03:41:23;;;;;;;16.50;5.00;;;8.60;99.90;;;;;;5033460;28;20870;-73
2024/01/25 03:43:49;;;;;;;25.00;5.50;;;8.50;99.90;;;;;;5033878;28;20780;-72
2024/01/25 03:46:15;;;;;;;21.17;5.53;;;8.50;99.90;;;;;;5015504;28;21005;-72
2024/01/25 03:48:42;;;;;;;16.97;5.53;;;8.50;99.90;;;;;;5033094;28;20432;-72
2024/01/25 03:51:08;;;;;;;24.00;5.70;;;8.50;99.90;;;;;;5033082;28;20430;-72
2024/01/25 03:53:33;;;;;;;16.30;6.20;;;8.50;99.90;;;;;;5033719;28;21265;-72
2024/01/25 03:55:59;;;;;;;24.43;5.40;;;8.50;99.90;;;;;;5033498;28;20432;-72
2024/01/25 03:58:25;;;;;;;22.80;5.13;;;8.40;99.90;;;;;;5033566;28;20341;-72
2024/01/25 04:00:50;;;;;;;23.03;6.33;;;8.40;99.90;;;;;;5033419;28;20194;-72
2024/01/25 04:03:16;;;;;;;24.20;5.47;;;8.40;99.90;;;;;;5015688;28;20178;-72
2024/01/25 04:05:42;;;;;;;29.27;6.87;;;8.40;99.90;;;;;;5033204;28;20550;-72
2024/01/25 04:08:08;;;;;;;25.67;6.50;;;8.40;99.90;;;;;;5033242;28;20183;-72
2024/01/25 04:10:33;;;;;;;24.20;5.93;;;8.30;99.90;;;;;;5033438;28;20190;-72
2024/01/25 04:13:04;;;;;;;23.60;4.97;;;8.30;99.90;;;;;;5033657;28;20554;-72
2024/01/25 04:15:30;;;;;;;17.70;7.30;;;8.30;99.90;;;;;;5033086;28;20201;-72
2024/01/25 04:17:56;;;;;;;16.70;5.87;;;8.30;99.90;;;;;;5034122;28;20430;-72
2024/01/25 04:20:22;;;;;;;20.03;5.07;;;8.20;99.90;;;;;;5031979;28;20428;-72
2024/01/25 04:22:47;;;;;;;22.43;6.80;;;8.20;99.90;;;;;;5033734;28;20553;-72
2024/01/25 04:25:13;;;;;;;21.43;5.50;;;8.20;99.90;;;;;;5014589;28;20435;-72
2024/01/25 04:27:39;;;;;;;20.40;5.20;;;8.20;99.90;;;;;;5015561;28;20187;-72
2024/01/25 04:30:06;;;;;;;21.70;6.70;;;8.10;99.90;;;;;;5033033;28;20254;-72
2024/01/25 04:32:32;;;;;;;16.47;4.83;;;8.10;99.90;;;;;;5032565;28;20220;-72
2024/01/25 04:34:58;;;;;;;23.67;6.40;;;8.00;99.90;;;;;;5033296;28;20433;-72
2024/01/25 04:37:23;;;;;;;27.90;6.03;;;7.90;99.90;;;;;;5032450;28;20865;-72
2024/01/25 04:39:49;;;;;;;15.37;4.67;;;7.90;99.90;;;;;;5033520;28;20194;-72
2024/01/25 04:42:15;;;;;;;16.00;5.57;;;7.90;99.90;;;;;;5014966;28;20182;-72
2024/01/25 04:44:40;;;;;;;21.80;6.33;;;7.90;99.90;;;;;;5032962;28;20272;-72
2024/01/25 04:47:06;;;;;;;23.40;5.37;;;7.80;99.90;;;;;;5032555;28;20232;-72
2024/01/25 04:49:32;;;;;;;22.17;5.33;;;7.80;99.90;;;;;;5032425;28;20227;-72
2024/01/25 04:51:57;;;;;;;20.23;4.93;;;7.80;99.90;;;;;;5033285;28;20759;-72
2024/01/25 04:54:23;;;;;;;18.57;5.60;;;7.80;99.90;;;;;;5032546;28;20182;-72
2024/01/25 04:56:49;;;;;;;24.03;6.20;;;7.80;99.90;;;;;;5033108;28;20178;-72
2024/01/25 04:59:14;;;;;;;16.87;5.03;;;7.80;99.90;;;;;;5032638;28;20368;-72
2024/01/25 05:01:40;;;;;;;20.23;7.27;;;7.80;99.90;;;;;;5033098;28;20179;-72
2024/01/25 05:04:06;;;;;;;19.30;5.07;;;7.80;99.90;;;;;;5033212;28;20182;-72
2024/01/25 05:06:32;;;;;;;15.33;4.80;;;7.70;99.90;;;;;;5031958;28;20666;-72
2024/01/25 05:08:57;;;;;;;21.70;5.60;;;7.70;99.90;;;;;;5032012;28;20194;-72
2024/01/25 05:11:23;;;;;;;16.83;5.50;;;7.70;99.90;;;;;;5028500;28;20182;-72
2024/01/25 05:13:48;;;;;;;21.03;5.57;;;7.70;99.90;;;;;;5028605;28;20194;-72
2024/01/25 05:16:15;;;;;;;16.23;5.70;;;7.70;99.90;;;;;;5032333;28;20201;-72
2024/01/25 05:18:40;;;;;;;14.97;5.40;;;7.70;99.90;;;;;;5036375;28;20182;-72
2024/01/25 05:21:06;;;;;;;16.43;5.07;;;7.70;99.90;;;;;;5036134;28;20432;-72
2024/01/25 05:23:32;;;;;;;23.80;6.20;;;7.70;99.90;;;;;;5036052;28;20185;-72
2024/01/25 05:25:57;;;;;;;19.80;5.20;;;7.60;99.90;;;;;;5036475;28;20190;-72
2024/01/25 05:28:24;;;;;;;17.20;5.60;;;7.60;99.90;;;;;;5036073;28;20633;-72
2024/01/25 05:30:50;;;;;;;25.43;7.77;;;7.60;99.90;;;;;;5035452;28;20212;-72
2024/01/25 05:33:15;;;;;;;21.73;5.87;;;7.60;99.90;;;;;;5018089;28;21029;-72
2024/01/25 05:35:41;;;;;;;19.57;6.93;;;7.60;99.90;;;;;;5035376;28;20439;-72
2024/01/25 05:38:07;;;;;;;28.60;6.70;;;7.60;99.90;;;;;;5035191;28;20193;-72
2024/01/25 05:40:33;;;;;;;20.07;5.60;;;7.50;99.90;;;;;;5036391;28;20424;-72
2024/01/25 05:42:59;;;;;;;19.67;7.37;;;7.50;99.90;;;;;;5036445;28;20828;-72
2024/01/25 05:45:26;;;;;;;17.80;5.40;;;7.50;99.90;;;;;;5036102;28;20182;-72
2024/01/25 05:47:51;;;;;;;21.70;6.47;;;7.50;99.90;;;;;;5036057;28;20922;-72
2024/01/25 05:50:18;;;;;;;22.47;6.37;;;7.50;99.90;;;;;;5034920;28;20434;-72
2024/01/25 05:52:43;;;;;;;30.47;7.33;;;7.50;99.90;;;;;;5035962;28;20716;-72
2024/01/25 05:55:09;;;;;;;23.37;6.83;;;7.40;99.90;;;;;;5033865;28;20433;-72
2024/01/25 05:57:36;;;;;;;20.47;5.17;;;7.40;99.90;;;;;;5035840;28;21051;-72
2024/01/25 06:00:05;;;;;;;15.03;6.70;;;7.40;99.90;;;;;;5032287;28;20208;-72
2024/01/25 06:02:31;;;;;;;26.87;8.57;;;7.40;99.90;;;;;;4986934;28;20445;-72
2024/01/25 06:04:58;;;;;;;19.53;6.03;;;7.30;99.90;;;;;;5034754;28;20525;-72
2024/01/25 06:07:24;;;;;;;19.73;7.10;;;7.30;99.90;;;;;;5015389;28;20190;-72
2024/01/25 06:09:50;;;;;;;20.20;6.37;;;7.30;99.90;;;;;;5035383;28;20488;-72
2024/01/25 06:12:16;;;;;;;20.20;6.60;;;7.30;99.90;;;;;;5035083;28;20901;-72
2024/01/25 06:14:42;;;;;;;25.77;8.00;;;7.30;99.90;;;;;;5034409;28;20201;-72
2024/01/25 06:17:08;;;;;;;26.63;6.50;;;7.30;99.90;;;;;;5033474;28;20425;-72
2024/01/25 06:19:34;;;;;;;19.50;6.07;;;7.30;99.90;;;;;;5017638;28;20185;-72
2024/01/25 06:22:00;;;;;;;20.13;7.10;;;7.20;99.90;;;;;;5034457;28;20660;-72
2024/01/25 06:24:26;;;;;;;21.23;6.47;;;7.20;99.90;;;;;;5034326;28;20440;-73
2024/01/25 06:26:53;;;;;;;18.20;5.30;;;7.20;99.90;;;;;;5033650;28;20513;-72
2024/01/25 06:29:18;;;;;;;23.93;5.13;;;7.20;99.90;;;;;;5032253;28;20218;-72
2024/01/25 06:31:44;;;;;;;28.23;7.60;;;7.10;99.90;;;;;;5017346;28;20579;-72
2024/01/25 06:34:10;;;;;;;29.07;6.80;;;7.10;99.90;;;;;;5034645;28;20930;-72
2024/01/25 06:36:37;;;;;;;25.53;8.03;;;7.20;99.90;;;;;;5035328;28;20512;-72
2024/01/25 06:39:04;;;;;;;21.00;7.70;;;7.20;99.90;;;;;;5034403;28;20456;-72
2024/01/25 06:41:30;;;;;;;20.50;5.93;;;7.20;99.90;;;;;;5015851;28;20437;-72
2024/01/25 06:43:55;;;;;;;28.50;7.30;;;7.10;99.90;;;;;;5016870;28;20852;-72
2024/01/25 06:46:21;;;;;;;25.07;6.70;;;7.10;99.90;;;;;;5034581;28;20825;-72
2024/01/25 06:48:47;;;;;;;24.37;6.27;;;7.10;99.90;;;;;;5034612;28;20293;-72
2024/01/25 06:51:14;;;;;;;16.60;5.80;;;7.10;99.90;;;;;;5015116;28;20189;-72
2024/01/25 06:53:40;;;;;;;20.27;6.83;;;7.10;99.90;;;;;;5033043;28;20225;-72
2024/01/25 06:56:06;;;;;;;18.30;5.83;;;7.10;99.90;;;;;;5033904;28;20444;-72
2024/01/25 06:58:32;;;;;;;21.73;6.80;;;7.10;99.90;;;;;;5034829;28;21041;-72
2024/01/25 07:00:58;;;;;;;22.50;7.63;;;7.10;99.90;;;;;;5034499;28;20425;-72
2024/01/25 07:03:24;;;;;;;22.80;6.90;;;7.10;99.90;;;;;;5017008;28;20648;-72
2024/01/25 07:05:49;;;;;;;22.97;8.17;;;7.10;99.90;;;;;;5034690;28;20483;-72
2024/01/25 07:08:15;;;;;;;18.23;6.17;;;7.10;99.90;;;;;;5034621;28;20651;-72
2024/01/25 07:10:42;;;;;;;28.57;6.37;;;7.00;99.90;;;;;;5012151;28;20674;-72
2024/01/25 07:13:08;;;;;;;26.87;8.90;;;7.00;99.90;;;;;;5030253;28;20579;-72
2024/01/25 07:15:34;;;;;;;24.23;6.27;;;7.00;99.90;;;;;;5031331;28;20602;-72
2024/01/25 07:17:59;;;;;;;30.80;7.27;;;7.00;99.90;;;;;;5031310;28;20983;-72
2024/01/25 07:20:25;;;;;;;27.00;7.57;;;7.00;99.90;;;;;;5034277;28;20192;-72
2024/01/25 07:22:51;;;;;;;25.73;7.13;;;7.00;99.90;;;;;;5030586;28;20200;-73
2024/01/25 07:25:16;;;;;;;23.93;7.70;;;7.00;99.90;;;;;;5010419;28;20556;-76
2024/01/25 07:27:46;;;;;;;26.17;8.83;;;7.00;99.90;;;;;;5031446;28;20297;-75
2024/01/25 07:30:13;;;;;;;19.77;6.83;;;7.00;99.90;;;;;;5000311;28;20833;-75
2024/01/25 07:32:41;;;;;;;21.43;7.50;;;6.90;99.90;;;;;;5034696;28;20471;-75
2024/01/25 07:35:10;;;;;;;20.60;7.73;;;7.00;99.90;;;;;;5033488;28;20428;-73
2024/01/25 07:37:36;;;;;;;25.07;8.20;;;7.00;99.90;;;;;;5033162;28;20420;-74
2024/01/25 07:40:05;;;;;;;24.67;7.80;;;6.90;99.90;;;;;;5032610;28;20421;-72
2024/01/25 07:42:30;;;;;;;29.73;7.80;;;6.90;99.90;;;;;;5033389;28;20425;-73
2024/01/25 07:44:57;;;;;;;26.97;8.53;;;7.00;99.90;;;;;;5032982;28;20428;-75
2024/01/25 07:47:23;;;;;;;30.23;8.00;;;7.00;99.90;;;;;;5033557;28;20513;-73
2024/01/25 07:49:48;;;;;;;20.20;7.47;;;7.00;99.90;;;;;;5015056;28;20483;-74
2024/01/25 07:52:14;;;;;;;24.83;7.67;;;7.00;99.90;;;;;;5016790;28;20217;-75
2024/01/25 07:54:40;;;;;;;19.50;7.67;;;7.00;99.90;;;;;;5031367;28;20546;-73
2024/01/25 07:57:06;;;;;;;27.67;8.60;;;7.00;99.90;;;;;;5030268;28;20192;-73
2024/01/25 07:59:31;;;;;;;30.67;9.40;;;7.00;99.90;;;;;;5034052;28;20185;-75
2024/01/25 08:01:57;;;;;;;26.03;9.53;;;7.00;99.90;;;;;;5033331;28;20663;-72
2024/01/25 08:04:23;;;;;;;35.80;9.20;;;7.00;99.90;;;;;;5034017;28;20205;-75
2024/01/25 08:06:48;;;;;;;21.93;8.60;;;7.00;99.90;;;;;;5032902;28;20186;-72
2024/01/25 08:09:14;;;;;;;22.00;8.50;;;7.00;99.90;;;;;;5032816;28;20589;-76
2024/01/25 08:11:40;;;;;;;31.83;10.03;;;7.00;99.90;;;;;;5034380;28;20186;-71
2024/01/25 08:14:05;;;;;;;29.90;10.43;;;7.00;99.90;;;;;;5034227;28;20271;-75
2024/01/25 08:16:31;;;;;;;29.40;8.63;;;7.10;99.90;;;;;;5034370;28;20676;-71
2024/01/25 08:18:58;;;;;;;27.90;8.57;;;7.00;99.90;;;;;;5034283;28;20263;-72
2024/01/25 08:21:24;;;;;;;25.80;8.73;;;7.00;99.90;;;;;;5015358;28;20186;-74
2024/01/25 08:23:49;;;;;;;27.53;9.67;;;7.00;99.90;;;;;;5031709;28;20435;-72
2024/01/25 08:26:15;;;;;;;29.20;10.47;;;7.10;99.90;;;;;;5033262;28;20285;-73
2024/01/25 08:28:44;;;;;;;31.40;11.30;;;7.10;99.90;;;;;;5033971;28;20727;-71
2024/01/25 08:31:10;;;;;;;36.43;10.17;;;7.10;99.90;;;;;;5032256;28;20190;-73
2024/01/25 08:33:36;;;;;;;28.90;10.50;;;7.10;99.90;;;;;;5032026;28;20477;-71
2024/01/25 08:36:02;;;;;;;22.40;10.10;;;7.10;99.90;;;;;;5032434;28;20467;-73
2024/01/25 08:38:28;;;;;;;28.27;10.00;;;7.20;99.90;;;;;;5033777;28;20527;-75
2024/01/25 08:40:54;;;;;;;32.83;11.40;;;7.20;99.90;;;;;;5032838;28;20428;-73
2024/01/25 08:43:19;;;;;;;28.17;11.07;;;7.20;99.90;;;;;;5032334;28;20217;-72
2024/01/25 08:45:45;;;;;;;23.93;9.93;;;7.20;99.90;;;;;;5033073;28;20205;-73
2024/01/25 08:48:13;;;;;;;30.73;10.87;;;7.20;99.90;;;;;;5015047;28;20190;-73
2024/01/25 08:50:39;;;;;;;26.83;10.10;;;7.30;99.90;;;;;;5033948;28;20515;-72
2024/01/25 08:53:05;;;;;;;28.43;10.83;;;7.30;99.90;;;;;;5036453;28;20457;-71
2024/01/25 08:55:31;;;;;;;43.90;12.20;;;7.30;99.90;;;;;;5037163;28;20794;-74
2024/01/25 08:57:56;;;;;;;26.23;11.97;;;7.30;99.90;;;;;;5037038;28;20490;-73
2024/01/25 09:00:22;;;;;;;29.33;9.57;;;7.30;99.90;;;;;;5037019;28;20942;-72
2024/01/25 09:02:48;;;;;;;31.13;11.63;;;7.30;99.90;;;;;;5019151;28;20178;-72
2024/01/25 09:05:14;;;;;;;29.97;11.20;;;7.30;99.90;;;;;;5003437;28;20591;-73
2024/01/25 09:07:40;;;;;;;37.67;12.10;;;7.40;99.90;;;;;;5036021;28;20811;-72
2024/01/25 09:10:06;;;;;;;32.53;13.67;;;7.40;99.90;;;;;;5036122;28;20509;-74
2024/01/25 09:12:32;;;;;;;29.00;12.17;;;7.40;99.90;;;;;;5036900;28;20989;-72
2024/01/25 09:14:58;;;;;;;30.57;15.00;;;7.40;99.90;;;;;;5016226;28;20555;-72
2024/01/25 09:17:24;;;;;;;37.27;15.97;;;7.50;99.90;;;;;;5036816;28;20186;-75
2024/01/25 09:19:49;;;;;;;31.63;15.07;;;7.50;99.90;;;;;;5035751;28;20193;-72
2024/01/25 09:22:17;;;;;;;30.73;15.77;;;7.50;99.90;;;;;;5017024;28;20501;-74
2024/01/25 09:24:43;;;;;;;27.87;16.53;;;7.60;99.90;;;;;;5033366;28;20456;-74
2024/01/25 09:27:09;;;;;;;33.20;14.97;;;7.60;99.90;;;;;;5034215;28;20453;-71
2024/01/25 09:29:35;;;;;;;37.57;17.30;;;7.60;99.90;;;;;;5002837;28;20428;-71
2024/01/25 09:32:00;;;;;;;32.27;16.00;;;7.60;99.90;;;;;;5034134;28;20467;-73
2024/01/25 09:34:26;;;;;;;36.60;15.87;;;7.60;99.90;;;;;;5030319;28;20177;-74
2024/01/25 09:36:52;;;;;;;37.23;15.80;;;7.70;99.90;;;;;;5029624;28;20189;-72
2024/01/25 09:39:17;;;;;;;33.83;17.20;;;7.70;99.90;;;;;;5034770;28;20182;-74
2024/01/25 09:41:43;;;;;;;39.90;16.43;;;7.80;99.90;;;;;;5018407;28;20263;-73
2024/01/25 09:44:10;;;;;;;36.13;17.17;;;7.80;99.90;;;;;;5017429;28;20179;-71
2024/01/25 09:46:37;;;;;;;35.60;17.13;;;7.80;99.90;;;;;;5035599;28;20227;-70
2024/01/25 09:49:04;;;;;;;30.67;16.50;;;7.80;99.90;;;;;;5035501;28;20427;-74
2024/01/25 09:51:37;;;;;;;37.10;14.53;;;7.80;99.90;;;;;;5036389;28;21257;-73
2024/01/25 09:54:04;;;;;;;59.60;19.27;;;7.80;99.90;;;;;;5016834;28;21011;-73
2024/01/25 09:56:32;;;;;;;36.83;15.80;;;7.90;99.90;;;;;;5018621;28;20417;-72
2024/01/25 09:58:58;;;;;;;41.17;16.80;;;7.90;99.90;;;;;;5017796;28;20439;-72
2024/01/25 10:01:24;;;;;;;33.03;15.63;;;7.90;99.90;;;;;;5035510;28;20437;-72
2024/01/25 10:03:50;;;;;;;41.40;15.70;;;8.00;99.90;;;;;;5034573;28;20418;-75
2024/01/25 10:06:17;;;;;;;31.90;16.50;;;8.00;99.90;;;;;;5035334;28;20479;-73
2024/01/25 10:08:43;;;;;;;39.80;17.90;;;8.00;99.90;;;;;;5035693;28;20557;-74
2024/01/25 10:11:11;;;;;;;40.10;16.00;;;8.00;99.90;;;;;;5035417;28;20433;-73
2024/01/25 10:13:50;;;;;;;46.67;17.00;;;8.10;99.90;;;;;;5035148;28;20883;-74
2024/01/25 10:16:19;;;;;;;42.03;18.67;;;8.10;99.90;;;;;;5034786;28;20510;-76
2024/01/25 10:18:49;;;;;;;41.20;16.57;;;8.20;99.90;;;;;;5034892;28;20429;-72
2024/01/25 10:21:16;;;;;;;32.50;16.37;;;8.20;99.90;;;;;;5032938;28;20428;-73
2024/01/25 10:23:45;;;;;;;32.70;13.53;;;8.20;99.90;;;;;;5013406;28;20811;-73
2024/01/25 10:26:11;;;;;;;34.53;15.70;;;8.20;99.90;;;;;;5035173;28;20433;-73
2024/01/25 10:28:37;;;;;;;29.90;16.40;;;8.30;99.90;;;;;;5035560;28;20437;-71
2024/01/25 10:31:07;;;;;;;33.60;14.47;;;8.30;99.90;;;;;;5034896;28;20178;-72
2024/01/25 10:33:34;;;;;;;32.57;14.70;;;8.20;99.90;;;;;;5035066;28;20210;-74
2024/01/25 10:36:03;;;;;;;43.20;16.57;;;8.20;99.90;;;;;;5034132;28;21180;-72
2024/01/25 10:38:33;;;;;;;31.00;17.03;;;8.20;99.90;;;;;;5035261;28;20429;-73
2024/01/25 10:41:03;;;;;;;43.77;19.90;;;8.20;99.90;;;;;;5034596;28;20496;-70
2024/01/25 10:43:32;;;;;;;28.57;14.83;;;8.20;99.90;;;;;;5035553;28;20483;-74
2024/01/25 10:45:59;;;;;;;33.90;16.03;;;8.20;99.90;;;;;;5032576;28;20442;-72
2024/01/25 10:48:32;;;;;;;32.33;15.43;;;8.20;99.90;;;;;;5014001;28;20441;-74
2024/01/25 10:51:02;;;;;;;34.37;15.03;;;8.20;99.90;;;;;;5032559;28;21157;-71
2024/01/25 10:53:31;;;;;;;23.00;13.33;;;8.20;99.90;;;;;;5035125;28;20583;-70
2024/01/25 10:55:57;;;;;;;26.90;13.03;;;8.30;99.90;;;;;;5016473;28;20951;-75
2024/01/25 10:58:23;;;;;;;31.10;14.03;;;8.40;99.90;;;;;;5035055;28;20582;-74
2024/01/25 11:00:55;;;;;;;44.63;15.87;;;8.40;99.90;;;;;;5034112;28;20881;-71
2024/01/25 11:03:30;;;;;;;27.57;13.50;;;8.60;99.90;;;;;;5031527;28;20182;-74
2024/01/25 11:06:07;;;;;;;34.10;12.07;;;8.60;99.90;;;;;;5033460;28;20428;-75
2024/01/25 11:08:33;;;;;;;29.10;12.80;;;8.70;99.90;;;;;;5016644;28;20513;-74
2024/01/25 11:10:59;;;;;;;31.07;12.20;;;8.80;99.90;;;;;;5033717;28;20433;-74
2024/01/25 11:13:29;;;;;;;30.00;11.77;;;8.80;99.90;;;;;;5016289;28;20217;-71
2024/01/25 11:15:55;;;;;;;29.73;12.30;;;8.80;99.90;;;;;;5033320;28;20487;-73
2024/01/25 11:18:25;;;;;;;23.53;11.40;;;8.90;99.90;;;;;;5033284;28;20829;-71
2024/01/25 11:20:51;;;;;;;29.67;11.60;;;9.00;99.90;;;;;;5032015;28;20186;-71
2024/01/25 11:23:17;;;;;;;27.70;12.73;;;9.00;99.90;;;;;;5036504;28;20974;-74
2024/01/25 11:25:48;;;;;;;27.40;11.17;;;9.10;99.90;;;;;;5032135;28;20213;-71
2024/01/25 11:28:16;;;;;;;25.33;10.73;;;9.10;99.90;;;;;;5033892;28;20181;-74
2024/01/25 11:30:42;;;;;;;25.53;10.43;;;9.20;99.90;;;;;;5032606;28;20798;-71
2024/01/25 11:33:08;;;;;;;25.47;10.77;;;9.20;99.90;;;;;;5033531;28;20476;-71
2024/01/25 11:35:34;;;;;;;24.23;10.70;;;9.30;99.90;;;;;;5013528;28;20428;-71
2024/01/25 11:38:00;;;;;;;28.43;10.47;;;9.40;99.90;;;;;;5033703;28;20498;-73
2024/01/25 11:40:28;;;;;;;25.23;10.33;;;9.30;99.90;;;;;;5025586;28;20194;-74
2024/01/25 11:42:54;;;;;;;22.90;8.70;;;9.40;99.90;;;;;;5031048;28;20478;-73
2024/01/25 11:45:19;;;;;;;23.87;9.33;;;9.40;99.90;;;;;;5014541;28;21073;-73
2024/01/25 11:47:45;;;;;;;23.50;9.07;;;9.50;99.90;;;;;;5032405;28;20725;-71
2024/01/25 11:50:13;;;;;;;26.63;8.43;;;9.60;99.90;;;;;;5032471;28;20317;-72
2024/01/25 11:52:39;;;;;;;26.83;8.17;;;9.60;99.90;;;;;;5031786;28;20222;-70
2024/01/25 11:55:09;;;;;;;28.67;8.80;;;9.70;99.90;;;;;;5014928;28;20440;-73
2024/01/25 11:57:38;;;;;;;27.70;8.67;;;10.00;99.90;;;;;;5015429;28;20273;-71
2024/01/25 12:00:07;;;;;;;15.60;7.10;;;10.20;99.90;;;;;;5032697;28;20432;-74
2024/01/25 12:02:33;;;;;;;22.13;8.03;;;10.30;99.90;;;;;;5030905;28;20825;-73
2024/01/25 12:04:59;;;;;;;18.00;8.03;;;10.30;99.90;;;;;;5032246;28;20441;-73
2024/01/25 12:07:24;;;;;;;23.63;8.17;;;10.20;99.90;;;;;;5032348;28;20433;-73
2024/01/25 12:10:04;;;;;;;28.93;9.63;;;10.00;99.90;;;;;;5032320;28;20552;-72
2024/01/25 12:12:29;;;;;;;25.00;8.70;;;9.90;99.90;;;;;;5032670;28;20245;-72
2024/01/25 12:15:15;;;;;;;27.37;8.30;;;9.80;99.90;;;;;;5032460;28;20473;-72
2024/01/25 12:17:41;;;;;;;24.20;8.07;;;9.60;99.90;;;;;;4999258;28;20206;-73
2024/01/25 12:20:10;;;;;;;32.30;7.73;;;9.60;99.90;;;;;;5034356;28;20428;-74
2024/01/25 12:22:36;;;;;;;22.57;7.83;;;9.60;99.90;;;;;;5031829;28;20209;-74
2024/01/25 12:25:06;;;;;;;18.83;7.30;;;9.50;99.90;;;;;;5031273;28;20429;-72
2024/01/25 12:27:32;;;;;;;25.33;8.80;;;9.40;99.90;;;;;;5032207;28;20429;-73
2024/01/25 12:29:58;;;;;;;19.60;8.13;;;9.40;99.90;;;;;;5033421;28;21000;-74
2024/01/25 12:32:23;;;;;;;22.73;7.87;;;9.40;99.90;;;;;;5032856;28;20475;-75
2024/01/25 12:34:56;;;;;;;24.77;9.60;;;9.40;99.90;;;;;;5032659;28;20224;-73
2024/01/25 12:37:22;;;;;;;22.13;8.93;;;9.40;99.90;;;;;;5016424;28;20201;-74
2024/01/25 12:39:48;;;;;;;21.93;9.07;;;9.40;99.90;;;;;;5031675;28;20425;-72